LZKZ/KSC METAR and TAF weather

Enter ICAO airport designator
Station Type Date Time Source
LZKZ METAR 2021/09/23 18:00 UTC NOAA

LZKZ 231800Z 20005KT CAVOK 13/08 Q1016


Station Type Date Time Source
LZKZ Decoded METAR 2021/09/23 18:00 UTC NOAA

Kosice, Barca, Slovakia (LZKZ) 48-39-47N 021-14-28E
Sep 23, 2021 - 02:00 PM EDT / 2021.09.23 1800 UTC
Wind: from the SSW (200 degrees) at 6 MPH (5 KT):0
Visibility: greater than 7 mile(s):0
Temperature: 55 F (13 C)
Dew Point: 46 F (8 C)
Relative Humidity: 71%
Pressure (altimeter): 30.00 in. Hg (1016 hPa)
ob: LZKZ 231800Z 20005KT CAVOK 13/08 Q1016
cycle: 18

Station Type Date Time Source
LZKZ TAF 2021/09/23 18:33 UTC NOAA

TAF LZKZ 231700Z 2318/2418 22009KT CAVOK
TEMPO 2321/2405 23015G30KT PROB30
TEMPO 2403/2408 9999 -RA BKN030
BECMG 2410/2412 35012KT

Example: see airport list